Etusivu
METAR-TAF:

METAR-TAF

Lentoasemat :

Sault Ste. Marie, Michigan, Yhdysvallat

Leveyspiiri: 46-15N, Pituuspiiri: 084-28W, korkeus merenpinnasta: 244 m

Tämänhetkinen sää

Tämä raportti tehtiin 59 minuuttia sitten, kello 12.56 UTC
Tuuli 10 kn etelästä/kaakosta
Lämpötila 21°C
Kosteus 69%
Ilmanpaine 1011 hPa
Näkyvyys: 16.1 km
Hajanaisia pilviä 4900 ft:n korkeudessa
Hajonneita pilviä 7000 ft:n korkeudessa

METAR: KCIU 181256Z AUTO 16010KT 10SM SCT049 BKN070 21/15 A2986 RMK AO2 SLP107 T02110150

Aika: 09:55 (13:55 UTC)


TAF: puuttuu

Säähavainnot ja -ennusteet yli 4000 lentoasemalta (METAR- ja TAF-raportit).

Käytössä olevat sääasemat on merkitty karttaan keltaisilla ja punaisilla pisteillä.

Aseta hiiri pisteen päälle nähdäksesi sääaseman nimen.

Klikkaa sitten nähdäksesi säähavainnot ja -ennusteet.

Kartan vaihtaminen: klikkaa mustalla rastilla varustettuja vihreitä pisteitä, niin voit zoomata sisään; viivalla varustettua vihreää pistettä, niin voit zoomata ulos tai vihreitä nuolia, niin pääset viereisille kartoille.


METAR-TAF: